^^
Saratoga-Weather Station Historical Data
Daily Summary for September 6, 2021 Units:  Both    English   Metric
Daily Weekly Monthly Yearly Custom
  High: Low: Average:
Temperature: 68.4 °F /  20.2 °C 58.8 °F /  14.9 °C 63.1 °F /  17.3 °C
Dew Point: 60.8 °F /  16 °C 56.5 °F /  13.6 °C 58.8 °F /  14.9 °C
Humidity: 97% 71% 87%
Wind Speed: 10.1mph /  16.3km/h - 1.9mph /  3.1km/h
Wind Gust: 15mph /  24.1km/h - -
Wind- - WSW
Pressure: 29.7 in /  1006.8 hPa 29.6 in /  1003.4 hPa -
Precipitation: 0.2 in /  5.1 mm    
Historical Graphs
 
 
Tabular Data for September 6, 2021
Time Temperature Dew Point Pressure Wind Wind Speed Wind Gust Humidity Rainfall Rate (Hourly) solar
00:06 59.4 °F /  15.2 °C 58.3 °F /  14.6 °C 29.7in /  1005.8hPa Calm   1mph /  1.6km/h 96% 0in /  0.0mm 0 W/m2
00:11 59.4 °F /  15.2 °C 58.3 °F /  14.6 °C 29.7in /  1005.8hPa Calm   1mph /  1.6km/h 96% 0in /  0.0mm 0 W/m2
00:16 59.4 °F /  15.2 °C 58.3 °F /  14.6 °C 29.7in /  1005.8hPa Calm   1mph /  1.6km/h 96% 0in /  0.0mm 0 W/m2
00:21 59.4 °F /  15.2 °C 58.3 °F /  14.6 °C 29.7in /  1005.8hPa WSW 0.9mph /  1.4km/h 2mph /  3.2km/h 96% 0in /  0.0mm 0 W/m2
00:26 59.4 °F /  15.2 °C 58.3 °F /  14.6 °C 29.7in /  1005.8hPa Calm     96% 0in /  0.0mm 0 W/m2
00:31 59.4 °F /  15.2 °C 58.3 °F /  14.6 °C 29.7in /  1005.8hPa Calm   2mph /  3.2km/h 96% 0in /  0.0mm 0 W/m2
00:36 59.4 °F /  15.2 °C 58.3 °F /  14.6 °C 29.7in /  1005.4hPa Calm     96% 0in /  0.0mm 0 W/m2
00:41 59.4 °F /  15.2 °C 58.3 °F /  14.6 °C 29.7in /  1005.4hPa Calm     96% 0in /  0.0mm 0 W/m2
00:46 59.4 °F /  15.2 °C 58.3 °F /  14.6 °C 29.7in /  1005.4hPa Calm     96% 0in /  0.0mm 0 W/m2
01:04 59.5 °F /  15.3 °C 58.6 °F /  14.8 °C 29.7in /  1005.4hPa West 2.9mph /  4.7km/h 7mph /  11.3km/h 97% 0.01in /  0.2mm 0 W/m2
01:09 59.9 °F /  15.5 °C 58.8 °F /  14.9 °C 29.7in /  1005.1hPa NNW 2.9mph /  4.7km/h 6mph /  9.7km/h 96% 0.02in /  0.5mm 0 W/m2
01:14 60.1 °F /  15.6 °C 59 °F /  15 °C 29.7in /  1005.1hPa NW 2mph /  3.2km/h 4mph /  6.4km/h 96% 0.02in /  0.5mm 0 W/m2
01:32 60.1 °F /  15.6 °C 58.6 °F /  14.8 °C 29.7in /  1004.7hPa NE 0.9mph /  1.4km/h 3mph /  4.8km/h 95% 0.03in /  0.8mm 0 W/m2
01:37 60.1 °F /  15.6 °C 58.6 °F /  14.8 °C 29.7in /  1004.7hPa NNE 0.9mph /  1.4km/h 3mph /  4.8km/h 95% 0.03in /  0.8mm 0 W/m2
01:42 60.1 °F /  15.6 °C 58.6 °F /  14.8 °C 29.7in /  1004.7hPa NNE 0.9mph /  1.4km/h 2mph /  3.2km/h 95% 0.03in /  0.8mm 0 W/m2
01:47 60.1 °F /  15.6 °C 58.6 °F /  14.8 °C 29.7in /  1004.7hPa Calm   2mph /  3.2km/h 95% 0.03in /  0.8mm 0 W/m2
01:52 60.1 °F /  15.6 °C 58.6 °F /  14.8 °C 29.7in /  1004.7hPa Calm     95% 0.03in /  0.8mm 0 W/m2
01:57 60.3 °F /  15.7 °C 58.8 °F /  14.9 °C 29.7in /  1004.7hPa ENE 0.9mph /  1.4km/h 2mph /  3.2km/h 95% 0.04in /  1.0mm 0 W/m2
02:02 60.1 °F /  15.6 °C 58.6 °F /  14.8 °C 29.7in /  1004.7hPa Calm   1mph /  1.6km/h 95% 0.03in /  0.8mm 0 W/m2
02:07 60.3 °F /  15.7 °C 58.8 °F /  14.9 °C 29.7in /  1004.7hPa Calm   2mph /  3.2km/h 95% 0.02in /  0.5mm 0 W/m2
02:12 60.3 °F /  15.7 °C 58.8 °F /  14.9 °C 29.7in /  1004.4hPa Calm   1mph /  1.6km/h 95% 0.02in /  0.5mm 0 W/m2
02:17 60.1 °F /  15.6 °C 58.6 °F /  14.8 °C 29.7in /  1004.4hPa Calm     95% 0.02in /  0.5mm 0 W/m2
02:22 60.3 °F /  15.7 °C 58.8 °F /  14.9 °C 29.7in /  1004.4hPa Calm     95% 0.02in /  0.5mm 0 W/m2
02:27 60.3 °F /  15.7 °C 58.8 °F /  14.9 °C 29.7in /  1004.4hPa East 2.9mph /  4.7km/h 3mph /  4.8km/h 95% 0.02in /  0.5mm 0 W/m2
02:44 60.3 °F /  15.7 °C 58.8 °F /  14.9 °C 29.7in /  1004.1hPa Calm   2mph /  3.2km/h 95% 0.01in /  0.2mm 0 W/m2
02:49 60.3 °F /  15.7 °C 58.8 °F /  14.9 °C 29.7in /  1004.1hPa NNE 0.9mph /  1.4km/h 2mph /  3.2km/h 95% 0.01in /  0.2mm 0 W/m2
02:54 60.3 °F /  15.7 °C 58.8 °F /  14.9 °C 29.7in /  1004.1hPa NE 0.9mph /  1.4km/h 2mph /  3.2km/h 95% 0.01in /  0.2mm 0 W/m2
02:59 60.3 °F /  15.7 °C 58.8 °F /  14.9 °C 29.7in /  1004.1hPa NE 0.9mph /  1.4km/h 3mph /  4.8km/h 95% 0in /  0.0mm 0 W/m2
03:04 60.3 °F /  15.7 °C 58.8 °F /  14.9 °C 29.7in /  1004.1hPa East 2mph /  3.2km/h 4mph /  6.4km/h 95% 0.01in /  0.2mm 0 W/m2
03:09 60.3 °F /  15.7 °C 58.8 °F /  14.9 °C 29.7in /  1004.1hPa Calm   3mph /  4.8km/h 95% 0.01in /  0.2mm 0 W/m2
03:14 60.3 °F /  15.7 °C 58.8 °F /  14.9 °C 29.7in /  1004.1hPa Calm   2mph /  3.2km/h 95% 0.01in /  0.2mm 0 W/m2
03:19 60.3 °F /  15.7 °C 58.8 °F /  14.9 °C 29.7in /  1004.1hPa Calm   2mph /  3.2km/h 95% 0.02in /  0.5mm 0 W/m2
03:24 60.4 °F /  15.8 °C 59 °F /  15 °C 29.6in /  1003.7hPa NNW 0.9mph /  1.4km/h 2mph /  3.2km/h 95% 0.02in /  0.5mm 0 W/m2
03:29 60.4 °F /  15.8 °C 59 °F /  15 °C 29.7in /  1004.1hPa Calm   2mph /  3.2km/h 95% 0.02in /  0.5mm 0 W/m2
03:34 60.4 °F /  15.8 °C 59 °F /  15 °C 29.6in /  1003.7hPa NE 0.9mph /  1.4km/h 3mph /  4.8km/h 95% 0.02in /  0.5mm 0 W/m2
03:39 60.4 °F /  15.8 °C 59 °F /  15 °C 29.6in /  1003.7hPa Calm   1mph /  1.6km/h 95% 0.02in /  0.5mm 0 W/m2
03:44 60.4 °F /  15.8 °C 59 °F /  15 °C 29.6in /  1003.7hPa ENE 2mph /  3.2km/h 4mph /  6.4km/h 95% 0.02in /  0.5mm 0 W/m2
03:49 60.4 °F /  15.8 °C 59 °F /  15 °C 29.6in /  1003.7hPa SSE 0.9mph /  1.4km/h 3mph /  4.8km/h 95% 0.02in /  0.5mm 0 W/m2
03:54 60.6 °F /  15.9 °C 59.2 °F /  15.1 °C 29.6in /  1003.7hPa Calm   4mph /  6.4km/h 95% 0.02in /  0.5mm 0 W/m2
03:59 60.6 °F /  15.9 °C 59.2 °F /  15.1 °C 29.6in /  1003.7hPa NE 0.9mph /  1.4km/h 3mph /  4.8km/h 95% 0.03in /  0.8mm 0 W/m2
04:04 60.8 °F /  16 °C 59.4 °F /  15.2 °C 29.6in /  1003.7hPa NE 2mph /  3.2km/h 2mph /  3.2km/h 95% 0.02in /  0.5mm 0 W/m2
04:09 60.8 °F /  16 °C 59.4 °F /  15.2 °C 29.6in /  1003.7hPa North 2mph /  3.2km/h 3mph /  4.8km/h 95% 0.02in /  0.5mm 0 W/m2
04:14 60.8 °F /  16 °C 59.4 °F /  15.2 °C 29.6in /  1003.7hPa West 2mph /  3.2km/h 2mph /  3.2km/h 95% 0.03in /  0.8mm 0 W/m2
04:19 60.8 °F /  16 °C 59.4 °F /  15.2 °C 29.6in /  1003.4hPa North 0.9mph /  1.4km/h 3mph /  4.8km/h 95% 0.04in /  1.0mm 0 W/m2
04:24 60.8 °F /  16 °C 59.4 °F /  15.2 °C 29.6in /  1003.7hPa Calm   3mph /  4.8km/h 95% 0.05in /  1.3mm 0 W/m2
04:29 61 °F /  16.1 °C 59.5 °F /  15.3 °C 29.6in /  1003.4hPa Calm   3mph /  4.8km/h 95% 0.05in /  1.3mm 0 W/m2
04:34 61 °F /  16.1 °C 59.5 °F /  15.3 °C 29.6in /  1003.4hPa SSE 2mph /  3.2km/h 3mph /  4.8km/h 95% 0.06in /  1.5mm 0 W/m2
04:39 61 °F /  16.1 °C 59.5 °F /  15.3 °C 29.6in /  1003.4hPa North 2mph /  3.2km/h 3mph /  4.8km/h 95% 0.06in /  1.5mm 0 W/m2
04:56 61.2 °F /  16.2 °C 59.7 °F /  15.4 °C 29.6in /  1003.4hPa NE 2mph /  3.2km/h 3mph /  4.8km/h 95% 0.06in /  1.5mm 0 W/m2
05:01 61.2 °F /  16.2 °C 59.7 °F /  15.4 °C 29.6in /  1003.4hPa NE 0.9mph /  1.4km/h 2mph /  3.2km/h 95% 0.04in /  1.0mm 0 W/m2
05:06 61.2 °F /  16.2 °C 59.7 °F /  15.4 °C 29.6in /  1003.4hPa WNW 0.9mph /  1.4km/h 2mph /  3.2km/h 95% 0.04in /  1.0mm 0 W/m2
05:11 61.2 °F /  16.2 °C 59.7 °F /  15.4 °C 29.6in /  1003.4hPa WNW 2mph /  3.2km/h 4mph /  6.4km/h 95% 0.04in /  1.0mm 0 W/m2
05:16 61.2 °F /  16.2 °C 59.7 °F /  15.4 °C 29.6in /  1003.4hPa SW 0.9mph /  1.4km/h 3mph /  4.8km/h 95% 0.02in /  0.5mm 0 W/m2
05:21 61.2 °F /  16.2 °C 59.7 °F /  15.4 °C 29.6in /  1003.4hPa NW 2mph /  3.2km/h 3mph /  4.8km/h 95% 0.02in /  0.5mm 0 W/m2
05:26 61.2 °F /  16.2 °C 59.7 °F /  15.4 °C 29.6in /  1003.4hPa NW 6.9mph /  11.1km/h 8mph /  12.9km/h 95% 0.02in /  0.5mm 0 W/m2
05:31 61.2 °F /  16.2 °C 59.7 °F /  15.4 °C 29.6in /  1003.4hPa NE 0.9mph /  1.4km/h 2mph /  3.2km/h 95% 0.01in /  0.2mm 0 W/m2
05:36 61.2 °F /  16.2 °C 59.4 °F /  15.2 °C 29.6in /  1003.4hPa NNE 2mph /  3.2km/h 8mph /  12.9km/h 94% 0.01in /  0.2mm 0 W/m2
05:41 61.2 °F /  16.2 °C 59.4 °F /  15.2 °C 29.6in /  1003.4hPa SW 4.9mph /  7.9km/h 5mph /  8km/h 94% 0.01in /  0.2mm 0 W/m2
05:46 61.2 °F /  16.2 °C 59.4 °F /  15.2 °C 29.6in /  1003.4hPa WNW 0.9mph /  1.4km/h 2mph /  3.2km/h 94% 0.02in /  0.5mm 0 W/m2
05:51 61.2 °F /  16.2 °C 59.4 °F /  15.2 °C 29.6in /  1003.4hPa Calm   1mph /  1.6km/h 94% 0.02in /  0.5mm 0 W/m2
05:56 61.2 °F /  16.2 °C 59.4 °F /  15.2 °C 29.6in /  1003.7hPa NE 0.9mph /  1.4km/h 1mph /  1.6km/h 94% 0.02in /  0.5mm 0 W/m2
06:01 61.2 °F /  16.2 °C 59.4 °F /  15.2 °C 29.6in /  1003.7hPa WSW 0.9mph /  1.4km/h 3mph /  4.8km/h 94% 0.02in /  0.5mm 0 W/m2
06:06 61.2 °F /  16.2 °C 59.4 °F /  15.2 °C 29.6in /  1003.7hPa West 0.9mph /  1.4km/h 6mph /  9.7km/h 94% 0.02in /  0.5mm 0 W/m2
06:11 61.2 °F /  16.2 °C 59.4 °F /  15.2 °C 29.6in /  1003.7hPa NNW 0.9mph /  1.4km/h 3mph /  4.8km/h 94% 0.02in /  0.5mm 0 W/m2
06:16 61.2 °F /  16.2 °C 59.4 °F /  15.2 °C 29.6in /  1003.7hPa West 4mph /  6.4km/h 6mph /  9.7km/h 94% 0.02in /  0.5mm 0 W/m2
06:21 61.2 °F /  16.2 °C 59.4 °F /  15.2 °C 29.6in /  1003.7hPa WNW 2mph /  3.2km/h 6mph /  9.7km/h 94% 0.02in /  0.5mm 0 W/m2
06:26 61.2 °F /  16.2 °C 59.4 °F /  15.2 °C 29.6in /  1003.7hPa ENE 0.9mph /  1.4km/h 2mph /  3.2km/h 94% 0.02in /  0.5mm 0 W/m2
06:31 61.2 °F /  16.2 °C 59.4 °F /  15.2 °C 29.6in /  1003.7hPa NW 2mph /  3.2km/h 5mph /  8km/h 94% 0.02in /  0.5mm 5 W/m2
06:49 61.2 °F /  16.2 °C 59.4 °F /  15.2 °C 29.7in /  1004.1hPa Calm   5mph /  8km/h 94% 0.01in /  0.2mm 5 W/m2
06:54 61.3 °F /  16.3 °C 59.5 °F /  15.3 °C 29.7in /  1004.1hPa NNE 0.9mph /  1.4km/h 2mph /  3.2km/h 94% 0.01in /  0.2mm 12 W/m2
06:59 61.3 °F /  16.3 °C 59.5 °F /  15.3 °C 29.7in /  1004.1hPa Calm   5mph /  8km/h 94% 0.01in /  0.2mm 12 W/m2
07:04 61.3 °F /  16.3 °C 59.5 °F /  15.3 °C 29.7in /  1004.1hPa NNE 2mph /  3.2km/h 4mph /  6.4km/h 94% 0.04in /  1.0mm 9 W/m2
07:09 61.2 °F /  16.2 °C 59.4 °F /  15.2 °C 29.7in /  1004.1hPa NNW 2mph /  3.2km/h 2mph /  3.2km/h 94% 0.06in /  1.5mm 14 W/m2
07:14 61.2 °F /  16.2 °C 59.4 °F /  15.2 °C 29.7in /  1004.1hPa West 2mph /  3.2km/h 6mph /  9.7km/h 94% 0.06in /  1.5mm 12 W/m2
07:19 61.2 °F /  16.2 °C 59.4 °F /  15.2 °C 29.7in /  1004.1hPa NW 0.9mph /  1.4km/h 3mph /  4.8km/h 94% 0.06in /  1.5mm 18 W/m2
07:24 61.2 °F /  16.2 °C 59.4 °F /  15.2 °C 29.7in /  1004.1hPa NW 4mph /  6.4km/h 5mph /  8km/h 94% 0.06in /  1.5mm 26 W/m2
07:29 61.2 °F /  16.2 °C 59.4 °F /  15.2 °C 29.7in /  1004.1hPa NNW 2mph /  3.2km/h 4mph /  6.4km/h 94% 0.06in /  1.5mm 26 W/m2
07:34 61.2 °F /  16.2 °C 59.4 °F /  15.2 °C 29.7in /  1004.1hPa NNW 2.9mph /  4.7km/h 4mph /  6.4km/h 94% 0.06in /  1.5mm 39 W/m2
07:39 61.2 °F /  16.2 °C 59.4 °F /  15.2 °C 29.7in /  1004.1hPa SW 2mph /  3.2km/h 3mph /  4.8km/h 94% 0.06in /  1.5mm 25 W/m2
07:44 61.2 °F /  16.2 °C 59.4 °F /  15.2 °C 29.7in /  1004.1hPa NW 2mph /  3.2km/h 8mph /  12.9km/h 94% 0.06in /  1.5mm 70 W/m2
08:00 61.3 °F /  16.3 °C 59.5 °F /  15.3 °C 29.7in /  1004.4hPa West 2mph /  3.2km/h 5mph /  8km/h 94% 0.04in /  1.0mm 132 W/m2
08:05 61.5 °F /  16.4 °C 59.7 °F /  15.4 °C 29.7in /  1004.4hPa NNW 0.9mph /  1.4km/h 1mph /  1.6km/h 94% 0.01in /  0.2mm 116 W/m2
08:10 61.9 °F /  16.6 °C 60.1 °F /  15.6 °C 29.7in /  1004.4hPa NW 0.9mph /  1.4km/h 6mph /  9.7km/h 94% 0.01in /  0.2mm 186 W/m2
08:15 62.1 °F /  16.7 °C 60.1 °F /  15.6 °C 29.7in /  1004.4hPa North 0.9mph /  1.4km/h 4mph /  6.4km/h 93% 0in /  0.0mm 63 W/m2
08:20 62.1 °F /  16.7 °C 60.1 °F /  15.6 °C 29.7in /  1004.4hPa WSW 2mph /  3.2km/h 6mph /  9.7km/h 93% 0in /  0.0mm 76 W/m2
08:25 62.1 °F /  16.7 °C 60.1 °F /  15.6 °C 29.7in /  1004.4hPa WNW 6mph /  9.7km/h 10mph /  16.1km/h 93% 0in /  0.0mm 123 W/m2
08:30 62.1 °F /  16.7 °C 59.7 °F /  15.4 °C 29.7in /  1004.7hPa NW 2.9mph /  4.7km/h 8mph /  12.9km/h 92% 0in /  0.0mm 72 W/m2
08:35 62.1 °F /  16.7 °C 59.7 °F /  15.4 °C 29.7in /  1004.7hPa SSE 6.9mph /  11.1km/h 10mph /  16.1km/h 92% 0in /  0.0mm 86 W/m2
08:40 62.1 °F /  16.7 °C 59.7 °F /  15.4 °C 29.7in /  1004.7hPa NNW 4mph /  6.4km/h 9mph /  14.5km/h 92% 0in /  0.0mm 111 W/m2
08:45 62.1 °F /  16.7 °C 59.7 °F /  15.4 °C 29.7in /  1004.7hPa WSW 0.9mph /  1.4km/h 6mph /  9.7km/h 92% 0in /  0.0mm 104 W/m2
08:50 62.1 °F /  16.7 °C 59.7 °F /  15.4 °C 29.7in /  1004.7hPa North 0.9mph /  1.4km/h 9mph /  14.5km/h 92% 0in /  0.0mm 76 W/m2
08:55 62.1 °F /  16.7 °C 59.4 °F /  15.2 °C 29.7in /  1004.7hPa NW 4mph /  6.4km/h 7mph /  11.3km/h 91% 0in /  0.0mm 83 W/m2
09:01 62.1 °F /  16.7 °C 59.4 °F /  15.2 °C 29.7in /  1004.7hPa Calm   3mph /  4.8km/h 91% 0in /  0.0mm 90 W/m2
09:06 62.1 °F /  16.7 °C 59.4 °F /  15.2 °C 29.7in /  1005.1hPa West 0.9mph /  1.4km/h 5mph /  8km/h 91% 0in /  0.0mm 100 W/m2
09:11 62.1 °F /  16.7 °C 59.4 °F /  15.2 °C 29.7in /  1005.1hPa NW 2mph /  3.2km/h 3mph /  4.8km/h 91% 0in /  0.0mm 192 W/m2
09:16 62.2 °F /  16.8 °C 59.9 °F /  15.5 °C 29.7in /  1005.1hPa WNW 2.9mph /  4.7km/h 6mph /  9.7km/h 92% 0in /  0.0mm 436 W/m2
09:21 62.8 °F /  17.1 °C 60.1 °F /  15.6 °C 29.7in /  1005.1hPa WNW 6.9mph /  11.1km/h 9mph /  14.5km/h 91% 0in /  0.0mm 466 W/m2
09:26 63.3 °F /  17.4 °C 60.3 °F /  15.7 °C 29.7in /  1005.1hPa WNW 4mph /  6.4km/h 5mph /  8km/h 90% 0in /  0.0mm 214 W/m2
09:31 63.5 °F /  17.5 °C 60.4 °F /  15.8 °C 29.7in /  1005.1hPa NW 0.9mph /  1.4km/h 3mph /  4.8km/h 90% 0in /  0.0mm 223 W/m2
09:36 63.7 °F /  17.6 °C 60.1 °F /  15.6 °C 29.7in /  1005.1hPa WNW 6mph /  9.7km/h 6mph /  9.7km/h 88% 0in /  0.0mm 137 W/m2
09:41 63.7 °F /  17.6 °C 60.1 °F /  15.6 °C 29.7in /  1005.4hPa WNW 4.9mph /  7.9km/h 5mph /  8km/h 88% 0in /  0.0mm 167 W/m2
09:46 63.5 °F /  17.5 °C 59.9 °F /  15.5 °C 29.7in /  1005.4hPa SE 8.1mph /  13km/h 10mph /  16.1km/h 88% 0in /  0.0mm 209 W/m2
09:51 63.5 °F /  17.5 °C 59.9 °F /  15.5 °C 29.7in /  1005.4hPa NNW 4mph /  6.4km/h 7mph /  11.3km/h 88% 0in /  0.0mm 229 W/m2
10:10 64 °F /  17.8 °C 60.1 °F /  15.6 °C 29.7in /  1005.4hPa NW 0.9mph /  1.4km/h 5mph /  8km/h 87% 0in /  0.0mm 696 W/m2
10:15 64.2 °F /  17.9 °C 59.9 °F /  15.5 °C 29.7in /  1005.8hPa WNW 4mph /  6.4km/h 8mph /  12.9km/h 86% 0in /  0.0mm 631 W/m2
10:20 64.6 °F /  18.1 °C 59.9 °F /  15.5 °C 29.7in /  1005.8hPa WSW 4.9mph /  7.9km/h 7mph /  11.3km/h 85% 0in /  0.0mm 192 W/m2
10:25 64.8 °F /  18.2 °C 59.9 °F /  15.5 °C 29.7in /  1005.8hPa NW 2mph /  3.2km/h 4mph /  6.4km/h 84% 0in /  0.0mm 691 W/m2
10:30 64.9 °F /  18.3 °C 59.7 °F /  15.4 °C 29.7in /  1005.8hPa West 0.9mph /  1.4km/h 9mph /  14.5km/h 83% 0in /  0.0mm 302 W/m2
10:35 64.9 °F /  18.3 °C 59.4 °F /  15.2 °C 29.7in /  1005.4hPa NW 4mph /  6.4km/h 8mph /  12.9km/h 82% 0in /  0.0mm 332 W/m2
10:40 64.9 °F /  18.3 °C 59.7 °F /  15.4 °C 29.7in /  1005.8hPa West 6.9mph /  11.1km/h 10mph /  16.1km/h 83% 0in /  0.0mm 301 W/m2
10:45 64.8 °F /  18.2 °C 59.2 °F /  15.1 °C 29.7in /  1005.8hPa NNW 2.9mph /  4.7km/h 4mph /  6.4km/h 82% 0in /  0.0mm 250 W/m2
10:50 64.6 °F /  18.1 °C 58.6 °F /  14.8 °C 29.7in /  1005.8hPa NNW 2.9mph /  4.7km/h 5mph /  8km/h 81% 0in /  0.0mm 255 W/m2
10:55 64.4 °F /  18 °C 58.8 °F /  14.9 °C 29.7in /  1005.8hPa North 2.9mph /  4.7km/h 7mph /  11.3km/h 82% 0in /  0.0mm 299 W/m2
11:11 64.8 °F /  18.2 °C 58.8 °F /  14.9 °C 29.7in /  1005.8hPa NNW 0.9mph /  1.4km/h 9mph /  14.5km/h 81% 0in /  0.0mm 306 W/m2
11:16 64.6 °F /  18.1 °C 59 °F /  15 °C 29.7in /  1005.8hPa West 2mph /  3.2km/h 6mph /  9.7km/h 82% 0in /  0.0mm 429 W/m2
11:21 64.6 °F /  18.1 °C 58.6 °F /  14.8 °C 29.7in /  1005.8hPa ESE 2mph /  3.2km/h 8mph /  12.9km/h 81% 0in /  0.0mm 452 W/m2
11:26 64.2 °F /  17.9 °C 58.6 °F /  14.8 °C 29.7in /  1005.8hPa NW 0.9mph /  1.4km/h 11mph /  17.7km/h 82% 0in /  0.0mm 371 W/m2
11:31 64 °F /  17.8 °C 58.8 °F /  14.9 °C 29.7in /  1005.8hPa North 6mph /  9.7km/h 6mph /  9.7km/h 83% 0in /  0.0mm 220 W/m2
11:36 63.5 °F /  17.5 °C 58.6 °F /  14.8 °C 29.7in /  1006.1hPa West 0.9mph /  1.4km/h 9mph /  14.5km/h 84% 0in /  0.0mm 149 W/m2
11:41 62.8 °F /  17.1 °C 58.5 °F /  14.7 °C 29.7in /  1006.1hPa NW 4.9mph /  7.9km/h 12mph /  19.3km/h 86% 0.01in /  0.2mm 251 W/m2
11:46 61.9 °F /  16.6 °C 58.3 °F /  14.6 °C 29.7in /  1006.1hPa NW 4mph /  6.4km/h 9mph /  14.5km/h 88% 0.01in /  0.2mm 512 W/m2
11:51 62.1 °F /  16.7 °C 58.8 °F /  14.9 °C 29.7in /  1006.1hPa WSW 2mph /  3.2km/h 4mph /  6.4km/h 89% 0.01in /  0.2mm 647 W/m2
11:56 62.2 °F /  16.8 °C 58.3 °F /  14.6 °C 29.7in /  1006.1hPa WNW 4.9mph /  7.9km/h 8mph /  12.9km/h 87% 0.01in /  0.2mm 461 W/m2
12:01 62.4 °F /  16.9 °C 58.1 °F /  14.5 °C 29.7in /  1006.1hPa NNW 0.9mph /  1.4km/h 7mph /  11.3km/h 86% 0.01in /  0.2mm 455 W/m2
12:06 62.8 °F /  17.1 °C 58.5 °F /  14.7 °C 29.7in /  1006.1hPa WNW 4mph /  6.4km/h 9mph /  14.5km/h 86% 0.01in /  0.2mm 489 W/m2
12:11 63 °F /  17.2 °C 58.6 °F /  14.8 °C 29.7in /  1006.1hPa Calm   9mph /  14.5km/h 86% 0.01in /  0.2mm 281 W/m2
12:16 63.1 °F /  17.3 °C 58.8 °F /  14.9 °C 29.7in /  1006.4hPa NNW 2.9mph /  4.7km/h 10mph /  16.1km/h 86% 0.01in /  0.2mm 220 W/m2
12:21 63 °F /  17.2 °C 58.6 °F /  14.8 °C 29.7in /  1006.4hPa WNW 2mph /  3.2km/h 6mph /  9.7km/h 86% 0.01in /  0.2mm 213 W/m2
12:26 62.8 °F /  17.1 °C 58.5 °F /  14.7 °C 29.7in /  1006.4hPa ESE 2mph /  3.2km/h 7mph /  11.3km/h 86% 0.01in /  0.2mm 195 W/m2
12:31 62.8 °F /  17.1 °C 58.5 °F /  14.7 °C 29.7in /  1006.4hPa NNW 4mph /  6.4km/h 9mph /  14.5km/h 86% 0.01in /  0.2mm 253 W/m2
12:37 62.8 °F /  17.1 °C 58.8 °F /  14.9 °C 29.7in /  1006.4hPa NNW 0.9mph /  1.4km/h 7mph /  11.3km/h 87% 0.01in /  0.2mm 269 W/m2
12:42 63 °F /  17.2 °C 59 °F /  15 °C 29.7in /  1006.4hPa NNW 2mph /  3.2km/h 9mph /  14.5km/h 87% 0in /  0.0mm 366 W/m2
12:47 63.3 °F /  17.4 °C 59.4 °F /  15.2 °C 29.7in /  1006.4hPa WNW 2.9mph /  4.7km/h 7mph /  11.3km/h 87% 0in /  0.0mm 381 W/m2
12:52 63.9 °F /  17.7 °C 59.5 °F /  15.3 °C 29.7in /  1006.4hPa NNW 2mph /  3.2km/h 5mph /  8km/h 86% 0in /  0.0mm 265 W/m2
12:57 64 °F /  17.8 °C 59.2 °F /  15.1 °C 29.7in /  1006.4hPa West 4mph /  6.4km/h 10mph /  16.1km/h 84% 0in /  0.0mm 318 W/m2
13:02 64 °F /  17.8 °C 59.2 °F /  15.1 °C 29.7in /  1006.4hPa NNW 6mph /  9.7km/h 6mph /  9.7km/h 84% 0in /  0.0mm 362 W/m2
13:22 65.7 °F /  18.7 °C 59.7 °F /  15.4 °C 29.7in /  1006.1hPa NW 4mph /  6.4km/h 6mph /  9.7km/h 81% 0in /  0.0mm 1102 W/m2
13:27 66.2 °F /  19 °C 59.5 °F /  15.3 °C 29.7in /  1006.1hPa West 6mph /  9.7km/h 10mph /  16.1km/h 79% 0in /  0.0mm 1255 W/m2
13:32 66.7 °F /  19.3 °C 60.8 °F /  16 °C 29.7in /  1006.4hPa WNW 4mph /  6.4km/h 10mph /  16.1km/h 81% 0in /  0.0mm 939 W/m2
13:37 66.7 °F /  19.3 °C 60.1 °F /  15.6 °C 29.7in /  1006.4hPa West 6.9mph /  11.1km/h 10mph /  16.1km/h 79% 0in /  0.0mm 496 W/m2
13:42 66.6 °F /  19.2 °C 59.9 °F /  15.5 °C 29.7in /  1006.4hPa NW 4.9mph /  7.9km/h 11mph /  17.7km/h 79% 0in /  0.0mm 246 W/m2
13:47 66 °F /  18.9 °C 59.4 °F /  15.2 °C 29.7in /  1006.4hPa SW 4.9mph /  7.9km/h 10mph /  16.1km/h 79% 0in /  0.0mm 200 W/m2
14:05 64.9 °F /  18.3 °C 59 °F /  15 °C 29.7in /  1006.4hPa WSW 6.9mph /  11.1km/h 12mph /  19.3km/h 81% 0in /  0.0mm 385 W/m2
14:10 64.9 °F /  18.3 °C 59 °F /  15 °C 29.7in /  1006.4hPa WNW 2.9mph /  4.7km/h 9mph /  14.5km/h 81% 0in /  0.0mm 504 W/m2
14:15 65.5 °F /  18.6 °C 59.5 °F /  15.3 °C 29.7in /  1006.1hPa NW 8.1mph /  13km/h 10mph /  16.1km/h 81% 0in /  0.0mm 376 W/m2
14:20 65.8 °F /  18.8 °C 59.5 °F /  15.3 °C 29.7in /  1006.1hPa West 0.9mph /  1.4km/h 11mph /  17.7km/h 80% 0in /  0.0mm 1002 W/m2
14:25 66.7 °F /  19.3 °C 59.7 °F /  15.4 °C 29.7in /  1006.1hPa WNW 2.9mph /  4.7km/h 15mph /  24.1km/h 78% 0in /  0.0mm 292 W/m2
14:30 66.7 °F /  19.3 °C 59.4 °F /  15.2 °C 29.7in /  1006.1hPa WNW 4mph /  6.4km/h 10mph /  16.1km/h 77% 0in /  0.0mm 306 W/m2
14:35 66.7 °F /  19.3 °C 59.7 °F /  15.4 °C 29.7in /  1006.4hPa SW 6mph /  9.7km/h 15mph /  24.1km/h 78% 0in /  0.0mm 399 W/m2
14:40 66.9 °F /  19.4 °C 59.5 °F /  15.3 °C 29.7in /  1006.1hPa NW 4.9mph /  7.9km/h 9mph /  14.5km/h 77% 0in /  0.0mm 288 W/m2
14:45 66.7 °F /  19.3 °C 59.4 °F /  15.2 °C 29.7in /  1006.1hPa West 2.9mph /  4.7km/h 10mph /  16.1km/h 77% 0in /  0.0mm 323 W/m2
14:50 66.9 °F /  19.4 °C 59.9 °F /  15.5 °C 29.7in /  1006.1hPa NNW 6mph /  9.7km/h 6mph /  9.7km/h 78% 0in /  0.0mm 339 W/m2
14:55 67.5 °F /  19.7 °C 60.1 °F /  15.6 °C 29.7in /  1006.1hPa NNE 6mph /  9.7km/h 6mph /  9.7km/h 77% 0in /  0.0mm 912 W/m2
15:00 68.2 °F /  20.1 °C 60.6 °F /  15.9 °C 29.7in /  1006.1hPa North 2mph /  3.2km/h 7mph /  11.3km/h 77% 0in /  0.0mm 1046 W/m2
15:05 68.4 °F /  20.2 °C 59.4 °F /  15.2 °C 29.7in /  1006.1hPa West 2.9mph /  4.7km/h 9mph /  14.5km/h 73% 0in /  0.0mm 267 W/m2
15:10 68 °F /  20 °C 58.6 °F /  14.8 °C 29.7in /  1006.1hPa WNW 4mph /  6.4km/h 6mph /  9.7km/h 72% 0in /  0.0mm 137 W/m2
15:15 67.6 °F /  19.8 °C 58.6 °F /  14.8 °C 29.7in /  1006.1hPa NE 0.9mph /  1.4km/h 7mph /  11.3km/h 73% 0in /  0.0mm 165 W/m2
15:20 67.3 °F /  19.6 °C 58.6 °F /  14.8 °C 29.7in /  1006.4hPa NW 4mph /  6.4km/h 7mph /  11.3km/h 74% 0in /  0.0mm 86 W/m2
15:25 66.7 °F /  19.3 °C 59 °F /  15 °C 29.7in /  1006.4hPa West 2.9mph /  4.7km/h 7mph /  11.3km/h 76% 0in /  0.0mm 91 W/m2
15:30 66.2 °F /  19 °C 59.2 °F /  15.1 °C 29.7in /  1006.4hPa NW 4.9mph /  7.9km/h 6mph /  9.7km/h 78% 0in /  0.0mm 364 W/m2
15:35 66 °F /  18.9 °C 59.4 °F /  15.2 °C 29.7in /  1006.4hPa Calm   7mph /  11.3km/h 79% 0in /  0.0mm 283 W/m2
15:40 66 °F /  18.9 °C 59.7 °F /  15.4 °C 29.7in /  1006.4hPa WNW 10.1mph /  16.3km/h 10mph /  16.1km/h 80% 0in /  0.0mm 388 W/m2
15:45 66.4 °F /  19.1 °C 59.7 °F /  15.4 °C 29.7in /  1006.4hPa NW 4mph /  6.4km/h 4mph /  6.4km/h 79% 0in /  0.0mm 367 W/m2
15:50 66.7 °F /  19.3 °C 59.7 °F /  15.4 °C 29.7in /  1006.4hPa NW 2mph /  3.2km/h 5mph /  8km/h 78% 0in /  0.0mm 403 W/m2
15:55 67.3 °F /  19.6 °C 58.6 °F /  14.8 °C 29.7in /  1006.4hPa WSW 4.9mph /  7.9km/h 8mph /  12.9km/h 74% 0in /  0.0mm 404 W/m2
16:01 67.6 °F /  19.8 °C 59.4 °F /  15.2 °C 29.7in /  1006.4hPa NNW 2.9mph /  4.7km/h 4mph /  6.4km/h 75% 0in /  0.0mm 424 W/m2
16:06 67.6 °F /  19.8 °C 58.3 °F /  14.6 °C 29.7in /  1006.4hPa NNW 2mph /  3.2km/h 15mph /  24.1km/h 72% 0in /  0.0mm 385 W/m2
16:11 67.3 °F /  19.6 °C 57.9 °F /  14.4 °C 29.7in /  1006.4hPa WNW 4mph /  6.4km/h 11mph /  17.7km/h 72% 0in /  0.0mm 246 W/m2
16:28 67.3 °F /  19.6 °C 58.6 °F /  14.8 °C 29.7in /  1006.4hPa NW 2mph /  3.2km/h 5mph /  8km/h 74% 0in /  0.0mm 272 W/m2
16:33 67.3 °F /  19.6 °C 58.6 °F /  14.8 °C 29.7in /  1006.4hPa NNW 2.9mph /  4.7km/h 8mph /  12.9km/h 74% 0in /  0.0mm 197 W/m2
16:38 67.3 °F /  19.6 °C 58.6 °F /  14.8 °C 29.7in /  1006.4hPa NW 2.9mph /  4.7km/h 7mph /  11.3km/h 74% 0in /  0.0mm 183 W/m2
16:43 67.3 °F /  19.6 °C 57.9 °F /  14.4 °C 29.7in /  1006.4hPa WNW 2mph /  3.2km/h 9mph /  14.5km/h 72% 0in /  0.0mm 185 W/m2
16:48 66.9 °F /  19.4 °C 58.3 °F /  14.6 °C 29.7in /  1006.4hPa West 6mph /  9.7km/h 9mph /  14.5km/h 74% 0in /  0.0mm 183 W/m2
16:53 66.9 °F /  19.4 °C 57.6 °F /  14.2 °C 29.7in /  1006.8hPa WNW 6.9mph /  11.1km/h 9mph /  14.5km/h 72% 0in /  0.0mm 172 W/m2
16:58 66.7 °F /  19.3 °C 57.4 °F /  14.1 °C 29.7in /  1006.8hPa North 10.1mph /  16.3km/h 11mph /  17.7km/h 72% 0in /  0.0mm 146 W/m2
17:03 66.7 °F /  19.3 °C 57.4 °F /  14.1 °C 29.7in /  1006.8hPa WNW 4mph /  6.4km/h 5mph /  8km/h 72% 0in /  0.0mm 183 W/m2
17:08 66.9 °F /  19.4 °C 57.6 °F /  14.2 °C 29.7in /  1006.8hPa WNW 2.9mph /  4.7km/h 6mph /  9.7km/h 72% 0in /  0.0mm 209 W/m2
17:13 66.9 °F /  19.4 °C 57.6 °F /  14.2 °C 29.7in /  1006.8hPa West 6.9mph /  11.1km/h 9mph /  14.5km/h 72% 0in /  0.0mm 260 W/m2
17:18 67.1 °F /  19.5 °C 57.7 °F /  14.3 °C 29.7in /  1006.8hPa NW 2mph /  3.2km/h 6mph /  9.7km/h 72% 0in /  0.0mm 241 W/m2
17:23 67.3 °F /  19.6 °C 57.9 °F /  14.4 °C 29.7in /  1006.4hPa North 2mph /  3.2km/h 9mph /  14.5km/h 72% 0in /  0.0mm 243 W/m2
17:39 67.6 °F /  19.8 °C 58.6 °F /  14.8 °C 29.7in /  1006.4hPa Calm   2mph /  3.2km/h 73% 0in /  0.0mm 220 W/m2
17:44 67.8 °F /  19.9 °C 58.8 °F /  14.9 °C 29.7in /  1006.8hPa NW 2mph /  3.2km/h 2mph /  3.2km/h 73% 0in /  0.0mm 127 W/m2
17:49 67.6 °F /  19.8 °C 58.3 °F /  14.6 °C 29.7in /  1006.8hPa NNE 4.9mph /  7.9km/h 5mph /  8km/h 72% 0in /  0.0mm 86 W/m2
17:54 67.5 °F /  19.7 °C 58.1 °F /  14.5 °C 29.7in /  1006.8hPa West 0.9mph /  1.4km/h 6mph /  9.7km/h 72% 0in /  0.0mm 137 W/m2
17:59 67.3 °F /  19.6 °C 57.9 °F /  14.4 °C 29.7in /  1006.8hPa Calm   9mph /  14.5km/h 72% 0in /  0.0mm 209 W/m2
18:04 67.3 °F /  19.6 °C 57.9 °F /  14.4 °C 29.7in /  1006.8hPa NW 0.9mph /  1.4km/h 4mph /  6.4km/h 72% 0in /  0.0mm 195 W/m2
18:09 67.3 °F /  19.6 °C 57.9 °F /  14.4 °C 29.7in /  1006.8hPa NW 4mph /  6.4km/h 5mph /  8km/h 72% 0in /  0.0mm 185 W/m2
18:14 67.5 °F /  19.7 °C 58.1 °F /  14.5 °C 29.7in /  1006.8hPa NNW 2.9mph /  4.7km/h 8mph /  12.9km/h 72% 0in /  0.0mm 167 W/m2
18:19 67.5 °F /  19.7 °C 57.7 °F /  14.3 °C 29.7in /  1006.4hPa WSW 4mph /  6.4km/h 7mph /  11.3km/h 71% 0in /  0.0mm 144 W/m2
18:25 67.3 °F /  19.6 °C 57.9 °F /  14.4 °C 29.7in /  1006.4hPa WNW 4.9mph /  7.9km/h 9mph /  14.5km/h 72% 0in /  0.0mm 139 W/m2
18:30 67.3 °F /  19.6 °C 57.9 °F /  14.4 °C 29.7in /  1006.4hPa NW 0.9mph /  1.4km/h 4mph /  6.4km/h 72% 0in /  0.0mm 105 W/m2
18:50 67.5 °F /  19.7 °C 58.8 °F /  14.9 °C 29.7in /  1006.1hPa Calm   7mph /  11.3km/h 74% 0in /  0.0mm 141 W/m2
18:55 67.5 °F /  19.7 °C 58.5 °F /  14.7 °C 29.7in /  1006.1hPa SW 0.9mph /  1.4km/h 3mph /  4.8km/h 73% 0in /  0.0mm 149 W/m2
19:00 67.5 °F /  19.7 °C 58.8 °F /  14.9 °C 29.7in /  1006.1hPa SW 2mph /  3.2km/h 7mph /  11.3km/h 74% 0in /  0.0mm 118 W/m2
19:05 67.5 °F /  19.7 °C 58.8 °F /  14.9 °C 29.7in /  1006.1hPa Calm   1mph /  1.6km/h 74% 0in /  0.0mm 111 W/m2
19:10 67.5 °F /  19.7 °C 59.2 °F /  15.1 °C 29.7in /  1006.1hPa Calm   2mph /  3.2km/h 75% 0in /  0.0mm 141 W/m2
19:15 67.5 °F /  19.7 °C 58.5 °F /  14.7 °C 29.7in /  1006.1hPa NNW 2mph /  3.2km/h 4mph /  6.4km/h 73% 0in /  0.0mm 134 W/m2
19:20 67.5 °F /  19.7 °C 60.1 °F /  15.6 °C 29.7in /  1006.1hPa East 0.9mph /  1.4km/h 2mph /  3.2km/h 77% 0in /  0.0mm 109 W/m2
19:25 67.3 °F /  19.6 °C 58.3 °F /  14.6 °C 29.7in /  1006.1hPa Calm   3mph /  4.8km/h 73% 0in /  0.0mm 91 W/m2
19:30 67.3 °F /  19.6 °C 58.6 °F /  14.8 °C 29.7in /  1006.1hPa Calm   3mph /  4.8km/h 74% 0in /  0.0mm 83 W/m2
19:35 67.3 °F /  19.6 °C 59.5 °F /  15.3 °C 29.7in /  1006.1hPa Calm   1mph /  1.6km/h 76% 0in /  0.0mm 97 W/m2
19:40 66.9 °F /  19.4 °C 58.8 °F /  14.9 °C 29.7in /  1006.1hPa SSW 0.9mph /  1.4km/h 3mph /  4.8km/h 75% 0in /  0.0mm 100 W/m2
19:45 66.7 °F /  19.3 °C 59 °F /  15 °C 29.7in /  1006.1hPa NW 2mph /  3.2km/h 4mph /  6.4km/h 76% 0in /  0.0mm 91 W/m2
19:50 66.7 °F /  19.3 °C 59.7 °F /  15.4 °C 29.7in /  1006.1hPa Calm   1mph /  1.6km/h 78% 0in /  0.0mm 88 W/m2
19:55 66.7 °F /  19.3 °C 60.1 °F /  15.6 °C 29.7in /  1006.1hPa Calm   4mph /  6.4km/h 79% 0in /  0.0mm 74 W/m2
20:00 66.6 °F /  19.2 °C 59.9 °F /  15.5 °C 29.7in /  1006.1hPa Calm   1mph /  1.6km/h 79% 0in /  0.0mm 95 W/m2
20:05 66.2 °F /  19 °C 59.5 °F /  15.3 °C 29.7in /  1006.1hPa Calm   2mph /  3.2km/h 79% 0in /  0.0mm 58 W/m2
20:10 66 °F /  18.9 °C 60.1 °F /  15.6 °C 29.7in /  1006.1hPa ENE 0.9mph /  1.4km/h 1mph /  1.6km/h 81% 0in /  0.0mm 47 W/m2
20:15 65.8 °F /  18.8 °C 59.9 °F /  15.5 °C 29.7in /  1006.1hPa Calm   2mph /  3.2km/h 81% 0in /  0.0mm 44 W/m2
20:20 65.5 °F /  18.6 °C 59.2 °F /  15.1 °C 29.7in /  1006.1hPa ENE 0.9mph /  1.4km/h 1mph /  1.6km/h 80% 0in /  0.0mm 39 W/m2
20:25 65.5 °F /  18.6 °C 60.3 °F /  15.7 °C 29.7in /  1006.1hPa ENE 0.9mph /  1.4km/h 2mph /  3.2km/h 83% 0in /  0.0mm 32 W/m2
20:30 64.9 °F /  18.3 °C 59.9 °F /  15.5 °C 29.7in /  1006.1hPa ENE 0.9mph /  1.4km/h 2mph /  3.2km/h 84% 0in /  0.0mm 23 W/m2
20:35 64.6 °F /  18.1 °C 59.7 °F /  15.4 °C 29.7in /  1006.1hPa Calm   1mph /  1.6km/h 84% 0in /  0.0mm 21 W/m2
20:40 64.2 °F /  17.9 °C 59.5 °F /  15.3 °C 29.7in /  1006.1hPa Calm   2mph /  3.2km/h 85% 0in /  0.0mm 23 W/m2
20:45 64 °F /  17.8 °C 59.4 °F /  15.2 °C 29.7in /  1006.1hPa Calm   1mph /  1.6km/h 85% 0in /  0.0mm 16 W/m2
20:50 63.7 °F /  17.6 °C 59 °F /  15 °C 29.7in /  1006.1hPa ENE 0.9mph /  1.4km/h 2mph /  3.2km/h 85% 0in /  0.0mm 11 W/m2
20:55 63.1 °F /  17.3 °C 58.8 °F /  14.9 °C 29.7in /  1006.1hPa Calm     86% 0in /  0.0mm 7 W/m2
21:00 63 °F /  17.2 °C 59 °F /  15 °C 29.7in /  1006.1hPa Calm   2mph /  3.2km/h 87% 0in /  0.0mm 5 W/m2
21:05 62.4 °F /  16.9 °C 58.5 °F /  14.7 °C 29.7in /  1006.1hPa Calm     87% 0in /  0.0mm 0 W/m2
21:10 62.1 °F /  16.7 °C 58.1 °F /  14.5 °C 29.7in /  1006.1hPa Calm     87% 0in /  0.0mm 0 W/m2
21:15 61.9 °F /  16.6 °C 58.3 °F /  14.6 °C 29.7in /  1006.1hPa Calm     88% 0in /  0.0mm 0 W/m2
21:20 61.5 °F /  16.4 °C 57.9 °F /  14.4 °C 29.7in /  1006.4hPa Calm     88% 0in /  0.0mm 0 W/m2
21:25 61.2 °F /  16.2 °C 57.9 °F /  14.4 °C 29.7in /  1006.4hPa Calm   1mph /  1.6km/h 89% 0in /  0.0mm 0 W/m2
21:30 61 °F /  16.1 °C 57.7 °F /  14.3 °C 29.7in /  1006.4hPa Calm     89% 0in /  0.0mm 0 W/m2
21:36 60.6 °F /  15.9 °C 57.4 °F /  14.1 °C 29.7in /  1006.4hPa Calm   1mph /  1.6km/h 89% 0in /  0.0mm 0 W/m2
21:41 60.4 °F /  15.8 °C 57.6 °F /  14.2 °C 29.7in /  1006.4hPa Calm   1mph /  1.6km/h 90% 0in /  0.0mm 0 W/m2
21:46 60.4 °F /  15.8 °C 57.6 °F /  14.2 °C 29.7in /  1006.1hPa SE 0.9mph /  1.4km/h 2mph /  3.2km/h 90% 0in /  0.0mm 0 W/m2
21:51 60.3 °F /  15.7 °C 57.4 °F /  14.1 °C 29.7in /  1006.4hPa Calm     90% 0in /  0.0mm 0 W/m2
21:56 60.3 °F /  15.7 °C 57.6 °F /  14.2 °C 29.7in /  1006.4hPa Calm   2mph /  3.2km/h 91% 0in /  0.0mm 0 W/m2
22:01 60.1 °F /  15.6 °C 57.4 °F /  14.1 °C 29.7in /  1006.1hPa Calm   2mph /  3.2km/h 91% 0in /  0.0mm 0 W/m2
22:06 60.1 °F /  15.6 °C 57.4 °F /  14.1 °C 29.7in /  1006.4hPa Calm   2mph /  3.2km/h 91% 0in /  0.0mm 0 W/m2
22:11 59.9 °F /  15.5 °C 57.2 °F /  14 °C 29.7in /  1006.4hPa Calm     91% 0in /  0.0mm 0 W/m2
22:16 59.7 °F /  15.4 °C 57 °F /  13.9 °C 29.7in /  1006.4hPa Calm   1mph /  1.6km/h 91% 0in /  0.0mm 0 W/m2
22:21 59.5 °F /  15.3 °C 56.8 °F /  13.8 °C 29.7in /  1006.4hPa Calm     91% 0in /  0.0mm 0 W/m2
22:26 59.5 °F /  15.3 °C 56.8 °F /  13.8 °C 29.7in /  1006.4hPa Calm     91% 0in /  0.0mm 0 W/m2
22:31 59.4 °F /  15.2 °C 56.7 °F /  13.7 °C 29.7in /  1006.4hPa Calm     91% 0in /  0.0mm 0 W/m2
22:36 59.2 °F /  15.1 °C 56.8 °F /  13.8 °C 29.7in /  1006.4hPa Calm     92% 0in /  0.0mm 0 W/m2
22:41 59.2 °F /  15.1 °C 56.8 °F /  13.8 °C 29.7in /  1006.4hPa Calm     92% 0in /  0.0mm 0 W/m2
22:46 59 °F /  15 °C 56.7 °F /  13.7 °C 29.7in /  1006.4hPa Calm     92% 0in /  0.0mm 0 W/m2
22:51 58.8 °F /  14.9 °C 56.5 °F /  13.6 °C 29.7in /  1006.1hPa Calm     92% 0in /  0.0mm 0 W/m2
22:56 58.8 °F /  14.9 °C 56.5 °F /  13.6 °C 29.7in /  1006.1hPa Calm     92% 0in /  0.0mm 0 W/m2
23:01 58.8 °F /  14.9 °C 56.8 °F /  13.8 °C 29.7in /  1006.1hPa Calm     93% 0in /  0.0mm 0 W/m2
23:06 58.8 °F /  14.9 °C 56.8 °F /  13.8 °C 29.7in /  1006.1hPa Calm     93% 0in /  0.0mm 0 W/m2
23:11 58.8 °F /  14.9 °C 56.8 °F /  13.8 °C 29.7in /  1006.1hPa Calm     93% 0in /  0.0mm 0 W/m2
23:16 59 °F /  15 °C 57 °F /  13.9 °C 29.7in /  1006.1hPa Calm   1mph /  1.6km/h 93% 0in /  0.0mm 0 W/m2
23:21 59.2 °F /  15.1 °C 57.2 °F /  14 °C 29.7in /  1006.1hPa Calm     93% 0in /  0.0mm 0 W/m2
23:26 59.2 °F /  15.1 °C 57.2 °F /  14 °C 29.7in /  1006.1hPa Calm     93% 0in /  0.0mm 0 W/m2
23:31 59.4 °F /  15.2 °C 57.6 °F /  14.2 °C 29.7in /  1006.1hPa Calm     94% 0in /  0.0mm 0 W/m2
23:36 59.4 °F /  15.2 °C 57.4 °F /  14.1 °C 29.7in /  1006.1hPa Calm   1mph /  1.6km/h 93% 0in /  0.0mm 0 W/m2
23:41 59.5 °F /  15.3 °C 57.6 °F /  14.2 °C 29.7in /  1006.1hPa Calm     93% 0in /  0.0mm 0 W/m2
23:59 59.9 °F /  15.5 °C 57.9 °F /  14.4 °C 29.7in /  1005.8hPa Calm   2mph /  3.2km/h 93% 0in /  0.0mm 0 W/m2
Juneau County Weather
Compliments of Weather Underground - 2 mb